Impacts TAF Board
For situational awareness. Not to be used for flight planning purposes.
IDs:

KCLE - Cleveland/Hopkins In, OH, US

Issued at 1421 UTC 20 Jan 2019
Updated at 1645 UTC 20 Jan 2019
Potential Impact None Slight Moderate High
Time1615Z 20/17Z 20/18Z 20/19Z 20/20Z 20/21Z 20/22Z 20/23Z 21/00Z 21/01Z 21/02Z 21/03Z 21/04Z 21/05Z>>
Type OBS PRVL
  [TEMP]  
PRVL
  [TEMP]  
PRVL
  [TEMP]  
PRVL PRVL PRVL PRVL PRVL PRVL PRVL PRVL PRVL PRVL
VIS 1.5 6
  [2]  
6
  [2]  
6
  [2]  
6 6 6 6 6 6 6 6 6 6
CIG 28 20
  [20]  
20
  [20]  
20
  [20]  
20 20 20 30 30 30 30 30 30 30
Cover OVC OVC
  [OVC]  
OVC
  [OVC]  
OVC
  [OVC]  
OVC OVC OVC OVC OVC OVC OVC OVC OVC OVC
FltCat IFR MVFR
  [IFR]  
MVFR
  [IFR]  
MVFR
  [IFR]  
MVFR MVFR MVFR MVFR MVFR MVFR MVFR MVFR MVFR MVFR
WX -SN BLSN -SHSN
  [-SHSN]  
-SHSN
  [-SHSN]  
-SHSN
  [-SHSN]  
-SHSN -SHSN -SHSN -SHSN -SHSN -SHSN -SHSN -SHSN -SHSN -SHSN
WDir 330 350
[350]
350
[350]
350
[350]
350 350 350 330 330 330 330 330 330 330
WSpd 19 20
  [20]  
20
  [20]  
20
  [20]  
20 20 20 15 15 15 15 15 15 15
WGst 27 30
  [30]  
30
  [30]  
30
  [30]  
30 30 30 25 25 25 25 25 25 25
Raw TAF
KCLE 201421Z 2014/2118 35020G30KT 4SM -SHSN BLSN SCT015 OVC025
  TEMPO 2014/2017 3/4SM -SHSN OVC015
  FM201700 35020G30KT 6SM -SHSN OVC020
  TEMPO 2017/2020 2SM -SHSN
  FM202300 33015G25KT 6SM -SHSN OVC030
  FM211400 33012G20KT P6SM BKN015


Raw METAR
KCLE 201615Z 33019G27KT 1 1/2SM -SN BLSN FEW019 BKN028 OVC034 M08/M13 A3003 RMK AO2 PK WND 33027/1612 P0000 T10831128 $
KCLE 201608Z 34014G26KT 1 1/4SM -SN BLSN SCT019 OVC030 M08/M13 A3002 RMK AO2 PK WND 34026/1603 VIS 3/4V2 1/2 P0000 T10831128 $
KCLE 201551Z 33015G25KT 1/2SM SN BLSN BKN019 BKN030 OVC035 M09/M12 A3002 RMK AO2 PK WND 33027/1500 SLP179 P0000 T10891122 $
KCLE 201542Z 34016G23KT 3/4SM -SN BLSN FEW016 BKN024 OVC033 M08/M12 A3002 RMK AO2 PK WND 33027/1500 P0000 T10831122 $
KCLE 201532Z 33018KT 1 3/4SM -SN BLSN OVC033 M08/M13 A3001 RMK AO2 PK WND 33027/1500 P0000 T10831128 $
KCLE 201524Z 33018G24KT 3/4SM -SN BLSN BKN030 OVC035 M08/M12 A3000 RMK AO2 PK WND 33027/1500 P0000 T10831117 $
KCLE 201451Z 33017G24KT 1 3/4SM -SN BLSN SCT021 OVC028 M08/M12 A2998 RMK AO2 SLP164 P0000 60000 T10831122 51033 $
KCLE 201433Z 33018G24KT 1 1/2SM -SN BLSN FEW013 BKN018 OVC030 M08/M11 A2997 RMK AO2 P0000 T10831111 $
KCLE 201414Z 34013KT 3/4SM -SN BKN017 BKN022 OVC027 M08/M11 A2997 RMK AO2 P0000 T10781106 $
KCLE 201353Z 36017G25KT 1SM -SN BLSN OVC026 M08/M12 A2995 RMK AO2 VIS 1/4V2 1/2 P0000 T10781122 $
KCLE 201351Z 36015G25KT 2 1/2SM -SN BLSN OVC026 M08/M12 A2995 RMK AO2 PK WND 36031/1307 SLP154 P0000 T10781122 $

METAR Board
Radar Display
Forecast Discussion
For situational awareness. Not to be used for flight planning purposes.